Terminal Aerodrome Forecast
Issued by NWS Chicago, IL

Home | Current Version | Previous Version | Text Only | Print | Product List | Glossary Off
Versions: 1 2 3 4 5 6 7 8 9 10 11 12 13 14 15 16 17 18 19 20 21 22 23 24 25 26 27

478
FTUS43 KLOT 170524
TAFRFD
TAF
KRFD 170524Z 1706/1806 17008KT P6SM SCT150 BKN250
     FM170900 20008KT P6SM VCSH BKN045
     FM171300 32008KT P6SM SCT015 BKN035
     FM172100 34008KT P6SM BKN250
     FM180200 02007KT P6SM SCT250=

USA.gov is the U.S. government's official web portal to all federal, state and local government web resources and services.